Weather observations for the past three days for
Titusville, NASA Shuttle Landing Facility
| Date | Time (edt) | Wind (kph) | Vis. (km) | Weather | Sky Cond. | Temperature (ºC) | Relative Humidity | Wind Chill (°C) | Heat Index (°C) | Pressure | Precipitation (cm) | ||||||
|---|---|---|---|---|---|---|---|---|---|---|---|---|---|---|---|---|---|
| Air | Dwpt | 6 hour | altimeter (cm) | sea level (mb) | 1 hr | 3 hr | 6 hr | ||||||||||
| Max. | Min. | ||||||||||||||||
| 10 | 03:55 | Calm | 16.09 | Fair | CLR | 23.3 | 21.9 | 92% | 75.95 | 1012.9 | |||||||
| 10 | 02:55 | Calm | 16.09 | Fair | CLR | 22.5 | 21.5 | 94% | 75.97 | 1013.3 | |||||||
| 10 | 01:55 | Calm | 16.09 | Fair | CLR | 23 | 21.6 | 24.5 | 23 | 92% | 76 | 1013.6 | |||||
| 10 | 00:55 | E 9 | 16.09 | Fair | CLR | 24 | 22 | 89% | 24 | 76.05 | 1014.3 | ||||||
| 09 | 23:55 | E 6 | 16.09 | Fair | CLR | 23.5 | 21.9 | 91% | 76.07 | 1014.6 | |||||||
| 09 | 22:55 | Calm | 16.09 | Fair | CLR | 23.9 | 21.9 | 89% | 24 | 76.07 | 1014.6 | ||||||
| 09 | 21:55 | NE 11 | 16.09 | Mostly Cloudy | FEW065 BKN120 | 24.2 | 22.1 | 88% | 24 | 76.05 | 1014.3 | ||||||
| 09 | 20:55 | NE 15 | 16.09 | Mostly Cloudy | FEW010 BKN065 BKN080 BKN100 | 23.6 | 21.3 | 87% | 76 | 1013.6 | |||||||
| 09 | 19:55 | NE 9 | 16.09 | Thunderstorm in Vicinity | FEW070 SCT110 | 24.6 | 22.1 | 33.6 | 24.6 | 86% | 25 | 75.9 | 1012.3 | 0.05 | 0.08 | ||
| 09 | 18:55 | N 20 G 33 | 16.09 | Thunderstorm Light Rain | SCT022 BKN027 BKN035 OVC070 | 26.7 | 22.7 | 79% | 29 | 75.84 | 1011.6 | 0.03 | |||||
| 09 | 17:55 | E 19 | 16.09 | Partly Cloudy | FEW070 SCT120 | 28.7 | 23.8 | 75% | 33 | 75.77 | 1010.6 | ||||||
| 09 | 16:55 | SE 11 | 16.09 | Mostly Cloudy | BKN070 BKN085 | 29.5 | 22.4 | 66% | 33 | 75.79 | 1010.9 | ||||||
| 09 | 15:55 | E 15 | 16.09 | Mostly Cloudy | SCT060 SCT080 BKN100 | 30.5 | 22.6 | 63% | 34 | 75.82 | 1011.2 | ||||||
| 09 | 14:55 | E 17 | 16.09 | Mostly Cloudy | SCT060 BKN095 BKN190 | 31.4 | 23.7 | 64% | 37 | 75.82 | 1011.2 | ||||||
| 09 | 13:55 | SW 11 | 16.09 | Partly Cloudy | FEW110 FEW140 SCT170 SCT190 | 33.1 | 20.6 | 33.6 | 23 | 48% | 36 | 75.87 | 1011.9 | ||||
| 09 | 12:55 | SW 15 | 16.09 | A Few Clouds | FEW150 FEW190 | 32.6 | 20.8 | 50% | 35 | 75.9 | 1012.3 | ||||||
| 09 | 11:55 | SW 13 | 16.09 | Fair | CLR | 30.9 | 21.3 | 57% | 34 | 75.95 | 1012.9 | ||||||
| 09 | 10:55 | SW 15 | 16.09 | Fair | CLR | 29.3 | 22.5 | 67% | 33 | 75.97 | 1013.3 | ||||||
| 09 | 09:55 | SW 7 | 16.09 | Fair | CLR | 27.5 | 22.6 | 75% | 30 | 75.95 | 1012.9 | ||||||
| 09 | 08:55 | SW 6 | 16.09 | Mostly Cloudy | BKN005 | 25.1 | 22.4 | 85% | 26 | 75.97 | 1013.3 | ||||||
| 09 | 07:55 | W 6 | 8.05 | Fog/Mist | OVC002 | 23.1 | 22.1 | 25.1 | 21.9 | 94% | 75.95 | 1012.9 | |||||
| 09 | 06:55 | Calm | 16.09 | A Few Clouds | FEW005 | 22 | 20.8 | 93% | 75.9 | 1012.3 | |||||||
| 09 | 05:55 | S 9 | 16.09 | Fair | CLR | 23.4 | 21.5 | 89% | 75.87 | 1011.9 | |||||||
| 09 | 04:55 | SW 7 | 16.09 | Fair | CLR | 24.2 | 21.3 | 84% | 24 | 75.9 | 1012.3 | ||||||
| 09 | 03:55 | S 9 | 16.09 | A Few Clouds | FEW085 | 24.7 | 21.6 | 83% | 25 | 75.9 | 1012.3 | ||||||
| 09 | 02:55 | S 7 | 16.09 | Overcast | OVC065 | 24.9 | 22.6 | 87% | 26 | 75.92 | 1012.6 | ||||||
| 09 | 01:55 | SE 9 | 16.09 | Mostly Cloudy | FEW060 BKN080 | 24.9 | 22.7 | 27.2 | 24.1 | 88% | 26 | 75.95 | 1012.9 | ||||
| 09 | 00:55 | Calm | 16.09 | Mostly Cloudy | BKN065 BKN100 | 24.8 | 22.5 | 87% | 25 | 76.02 | 1014.0 | ||||||
| 08 | 23:55 | Calm | 16.09 | Mostly Cloudy | SCT070 BKN110 | 24.5 | 22.3 | 88% | 25 | 76.05 | 1014.3 | ||||||
| 08 | 22:55 | Calm | 16.09 | Thunderstorm in Vicinity | BKN065 | 25.4 | 22.9 | 86% | 27 | 76.05 | 1014.3 | ||||||
| 08 | 21:55 | E 6 | 16.09 | Fair | CLR | 25.6 | 22.5 | 83% | 27 | 75.97 | 1013.3 | ||||||
| 08 | 20:55 | SE 13 | 16.09 | Fair | CLR | 26.3 | 22.3 | 79% | 28 | 75.92 | 1012.6 | ||||||
| 08 | 19:55 | E 11 | 16.09 | Mostly Cloudy | BKN060 | 27.2 | 22.1 | 31.8 | 27.2 | 74% | 30 | 75.92 | 1012.6 | ||||
| 08 | 18:55 | SE 17 | 16.09 | Fair | CLR | 28.5 | 21.7 | 67% | 31 | 75.82 | 1011.2 | ||||||
| 08 | 17:55 | SE 22 | 16.09 | Fair | CLR | 28.7 | 20.7 | 62% | 31 | 75.82 | 1011.2 | ||||||
| 08 | 16:55 | SE 17 | 16.09 | Fair | CLR | 30.9 | 21.1 | 56% | 34 | 75.84 | 1011.6 | ||||||
| 08 | 15:55 | SE 13 | 16.09 | Fair | CLR | 30.7 | 21.7 | 59% | 34 | 75.9 | 1012.3 | ||||||
| 08 | 14:55 | SE 17 | 16.09 | Fair | CLR | 30.5 | 22.4 | 62% | 34 | 75.95 | 1012.9 | ||||||
| 08 | 13:55 | E 13 | 16.09 | Partly Cloudy | FEW032 FEW160 SCT190 | 30.3 | 21.9 | 30.9 | 23.4 | 61% | 34 | 76 | 1013.6 | ||||
| 08 | 12:55 | N 7 | 16.09 | Mostly Cloudy | FEW033 SCT042 SCT055 BKN065 | 29.2 | 21.9 | 65% | 32 | 76.07 | 1014.6 | ||||||
| 08 | 11:55 | NE 9 | 16.09 | Overcast | SCT025 BKN030 BKN046 OVC055 | 28.8 | 22.5 | 69% | 32 | 76.12 | 1015.3 | ||||||
| 08 | 10:55 | NE 6 | 16.09 | Partly Cloudy | SCT023 SCT032 | 29.2 | 22.6 | 68% | 33 | 76.12 | 1015.3 | ||||||
| 08 | 09:55 | W 11 | 16.09 | A Few Clouds | FEW019 | 28 | 22 | 70% | 31 | 76.12 | 1015.3 | ||||||
| 08 | 08:55 | W 7 | 16.09 | Fair | CLR | 25.6 | 22.5 | 83% | 27 | 76.1 | 1015.0 | ||||||
| 08 | 07:55 | W 7 | 16.09 | Fair | CLR | 23.3 | 21.9 | 23.3 | 20.2 | 92% | 76.07 | 1014.6 | |||||
| 08 | 06:55 | Calm | 16.09 | Fair | CLR | 21.1 | 20.1 | 94% | 76 | 1013.6 | |||||||
| 08 | 05:55 | Calm | 16.09 | Fair | CLR | 21.3 | 20.3 | 94% | 75.95 | 1012.9 | |||||||
| 08 | 04:55 | NW 6 | 16.09 | Fair | CLR | 20.6 | 19.2 | 92% | 75.95 | 1012.9 | |||||||
| 08 | 03:55 | Calm | 16.09 | Fair | CLR | 21.8 | 19.1 | 85% | 75.95 | 1012.9 | |||||||
| 08 | 02:55 | W 7 | 16.09 | Fair | CLR | 22.9 | 19.8 | 83% | 75.95 | 1012.9 | |||||||
| 08 | 01:55 | Calm | 16.09 | Fair | CLR | 21.3 | 18.5 | 27.6 | 21 | 84% | 75.97 | 1013.3 | |||||
| 08 | 00:55 | W 7 | 16.09 | Fair | CLR | 24 | 17.9 | 69% | 25 | 76 | 1013.6 | ||||||
| 07 | 23:55 | W 9 | 16.09 | Fair | CLR | 25 | 16.9 | 61% | 26 | 76 | 1013.6 | ||||||
| 07 | 22:55 | Calm | 16.09 | Fair | CLR | 22.7 | 20.8 | 89% | 75.97 | 1013.3 | |||||||
| 07 | 21:55 | S 6 | 16.09 | Fair | CLR | 25.5 | 22 | 81% | 27 | 75.95 | 1012.9 | ||||||
| 07 | 20:55 | SW 6 | 16.09 | Fair | CLR | 26.5 | 21.9 | 76% | 28 | 75.92 | 1012.6 | ||||||
| 07 | 19:55 | S 15 | 16.09 | Fair | CLR | 27.7 | 21.9 | 35 | 27.7 | 71% | 30 | 75.87 | 1011.9 | ||||
| 07 | 18:55 | S 19 | 16.09 | Fair | CLR | 30 | 21.6 | 61% | 33 | 75.87 | 1011.9 | ||||||
| 07 | 17:55 | S 19 | 16.09 | Fair | CLR | 33.5 | 20.6 | 47% | 36 | 75.84 | 1011.6 | ||||||
| 07 | 16:55 | W 13 | 16.09 | Fair | CLR | 33.4 | 15.4 | 34% | 33 | 75.87 | 1011.9 | ||||||
| 07 | 15:55 | W 17 | 16.09 | Fair | CLR | 34.2 | 15.6 | 33% | 34 | 75.9 | 1012.3 | ||||||
| 07 | 14:55 | SW 19 | 16.09 | Fair | CLR | 33.5 | 17.2 | 38% | 34 | 75.97 | 1013.3 | ||||||
| 07 | 13:55 | SW 11 | 16.09 | A Few Clouds | FEW170 | 33 | 19.4 | 33.1 | 22.2 | 45% | 35 | 76.07 | 1014.6 | ||||
| 07 | 12:55 | SW 9 | 16.09 | Fair | CLR | 31.3 | 19.6 | 50% | 33 | 76.07 | 1014.6 | ||||||
| 07 | 11:55 | SW 15 | 16.09 | Fair | CLR | 30.3 | 20.2 | 55% | 32 | 76.12 | 1015.3 | ||||||
| 07 | 10:55 | SW 19 | 16.09 | Fair | CLR | 28.6 | 20.6 | 62% | 31 | 76.17 | 1016.0 | ||||||
| 07 | 09:55 | SW 20 | 16.09 | Fair | CLR | 27.3 | 19.3 | 62% | 29 | 76.17 | 1016.0 | ||||||
| 07 | 08:55 | S 11 | 9.66 | Fair with Haze | CLR | 25.2 | 20.2 | 74% | 26 | 76.17 | 1016.0 | ||||||
| 07 | 07:55 | S 6 | 16.09 | Fair | CLR | 22.1 | 19.6 | 22.1 | 19 | 86% | 76.17 | 1016.0 | |||||
| 07 | 06:55 | S 7 | 16.09 | Fair | CLR | 20.4 | 19 | 92% | 76.15 | 1015.6 | |||||||
| 07 | 05:55 | Calm | 16.09 | Fair | CLR | 19.4 | 17.9 | 91% | 76.1 | 1015.0 | |||||||
| 07 | 04:55 | S 7 | 16.09 | Fair | CLR | 20.8 | 19.6 | 93% | 76.05 | 1014.3 | |||||||
| Date | Time (edt) | Wind (kph) | Vis. (km) | Weather | Sky Cond. | Air | Dwpt | Max. | Min. | Relative Humidity | Wind Chill (°C) | Heat Index (°C) | altimeter (cm) | sea level (mb) | 1 hr | 3 hr | 6 hr |
| 6 hour | |||||||||||||||||
| Temperature (ºC) | Pressure | Precipitation (cm) | |||||||||||||||